createdAt,value
2023-03-21T00:01:33.972Z,14.87
2023-03-21T00:04:52.285Z,14.20
2023-03-21T00:07:45.995Z,9.90
2023-03-21T00:11:11.936Z,12.33
2023-03-21T00:14:31.936Z,12.05
2023-03-21T00:17:49.011Z,10.47
2023-03-21T00:20:49.008Z,11.57
2023-03-21T00:24:00.995Z,10.93
2023-03-21T00:30:26.947Z,11.80
2023-03-21T00:33:28.022Z,10.20
2023-03-21T00:36:51.964Z,13.43
2023-03-21T00:39:52.087Z,11.13
2023-03-21T00:43:17.997Z,11.23
2023-03-21T00:46:19.686Z,10.07
2023-03-21T00:49:44.049Z,11.50
2023-03-21T00:52:45.323Z,10.85
2023-03-21T00:55:59.040Z,10.63
2023-03-21T00:59:25.087Z,12.37
2023-03-21T01:02:37.068Z,10.00
2023-03-21T01:06:17.061Z,11.57
2023-03-21T01:09:42.053Z,10.07
2023-03-21T01:12:42.115Z,11.40
2023-03-21T01:19:00.150Z,14.43
2023-03-21T01:22:24.109Z,13.30
2023-03-21T01:25:24.200Z,10.80
2023-03-21T01:28:48.195Z,11.90
2023-03-21T01:32:00.212Z,13.07
2023-03-21T01:35:27.011Z,12.35
2023-03-21T01:38:50.256Z,12.23
2023-03-21T01:42:02.232Z,11.03
2023-03-21T01:45:27.221Z,11.00
2023-03-21T01:48:51.228Z,11.55
2023-03-21T01:52:29.822Z,13.90
2023-03-21T01:55:42.289Z,13.53
2023-03-21T01:59:09.290Z,13.70
2023-03-21T02:02:34.254Z,12.23
2023-03-21T02:06:00.300Z,11.70
2023-03-21T02:09:26.308Z,12.45
2023-03-21T02:12:51.327Z,13.67
2023-03-21T02:16:19.373Z,10.70
2023-03-21T02:19:53.906Z,11.30
2023-03-21T02:23:25.412Z,11.23
2023-03-21T02:27:03.914Z,11.40
2023-03-21T02:30:51.305Z,11.15
2023-03-21T02:34:13.320Z,10.60
2023-03-21T02:37:42.910Z,10.55
2023-03-21T02:41:03.435Z,9.53
2023-03-21T02:44:14.473Z,10.47
2023-03-21T02:47:38.428Z,9.70
2023-03-21T02:50:50.416Z,10.07
2023-03-21T02:54:30.354Z,9.80
2023-03-21T02:57:43.388Z,9.33
2023-03-21T03:01:05.506Z,10.30
2023-03-21T03:04:18.583Z,8.93
2023-03-21T03:07:46.507Z,9.35
2023-03-21T03:11:10.545Z,10.03
2023-03-21T03:17:42.506Z,9.15
2023-03-21T03:21:10.611Z,9.65
2023-03-21T03:24:22.456Z,9.90
2023-03-21T03:27:49.493Z,9.60
2023-03-21T03:31:15.062Z,8.70
2023-03-21T03:34:39.538Z,10.70
2023-03-21T03:38:03.556Z,11.40
2023-03-21T03:41:34.953Z,8.57
2023-03-21T03:44:55.616Z,10.40
2023-03-21T03:48:19.601Z,9.00
2023-03-21T03:51:44.583Z,8.95
2023-03-21T03:55:08.698Z,10.85
2023-03-21T03:58:24.038Z,10.73
2023-03-21T04:01:47.693Z,9.43
2023-03-21T04:05:12.701Z,9.45
2023-03-21T04:08:36.702Z,12.15
2023-03-21T04:12:01.697Z,10.87
2023-03-21T04:15:13.752Z,10.20
2023-03-21T04:18:39.679Z,9.40
2023-03-21T04:21:51.750Z,9.90
2023-03-21T04:25:04.947Z,10.30
2023-03-21T04:28:17.767Z,11.63
2023-03-21T04:31:41.835Z,11.63
2023-03-21T04:35:07.747Z,13.15
2023-03-21T04:38:20.760Z,13.37
2023-03-21T04:41:32.812Z,10.93
2023-03-21T04:44:47.740Z,14.27
2023-03-21T04:48:11.971Z,15.03
2023-03-21T04:51:38.838Z,13.43
2023-03-21T04:54:50.887Z,9.60
2023-03-21T04:58:02.779Z,10.45
2023-03-21T05:01:02.855Z,10.20
2023-03-21T05:04:26.907Z,9.53
2023-03-21T05:07:52.851Z,12.07
2023-03-21T05:11:05.896Z,11.37
2023-03-21T05:14:29.869Z,13.15
2023-03-21T05:17:41.869Z,12.60
2023-03-21T05:20:50.833Z,10.90
2023-03-21T05:24:17.899Z,10.20
2023-03-21T05:27:47.970Z,12.60
2023-03-21T05:31:01.048Z,15.20
2023-03-21T05:34:15.516Z,10.30
2023-03-21T05:40:47.947Z,12.75
2023-03-21T05:44:12.001Z,13.17
2023-03-21T05:47:24.037Z,9.27
2023-03-21T05:50:36.925Z,11.85
2023-03-21T05:53:49.031Z,12.90
2023-03-21T05:57:16.031Z,11.53
2023-03-21T06:00:40.978Z,10.30
2023-03-21T06:03:54.068Z,10.80
2023-03-21T06:07:07.038Z,9.60
2023-03-21T06:10:20.073Z,10.07
2023-03-21T06:13:46.091Z,11.75
2023-03-21T06:17:11.141Z,8.53
2023-03-21T06:20:37.021Z,8.80
2023-03-21T06:23:51.129Z,10.33
2023-03-21T06:26:51.068Z,8.63
2023-03-21T06:30:19.046Z,8.80
2023-03-21T06:33:31.111Z,9.35
2023-03-21T06:36:43.178Z,9.10
2023-03-21T06:39:55.657Z,8.83
2023-03-21T06:43:07.214Z,10.10
2023-03-21T06:46:33.220Z,9.50
2023-03-21T06:49:58.211Z,9.37
2023-03-21T06:53:12.257Z,9.45
2023-03-21T06:56:40.188Z,10.20
2023-03-21T06:59:53.147Z,10.50
2023-03-21T07:03:20.207Z,9.13
2023-03-21T07:06:44.288Z,7.53
2023-03-21T07:09:56.275Z,7.70
2023-03-21T07:13:27.179Z,10.17
2023-03-21T07:16:52.282Z,9.07
2023-03-21T07:20:06.315Z,8.90
2023-03-21T07:23:25.258Z,8.13
2023-03-21T07:26:37.305Z,9.50
2023-03-21T07:29:50.262Z,8.97
2023-03-21T07:33:05.323Z,8.77
2023-03-21T07:36:31.294Z,8.30
2023-03-21T07:39:43.294Z,8.90
2023-03-21T07:43:09.352Z,7.83
2023-03-21T07:46:21.346Z,9.30
2023-03-21T07:49:36.342Z,8.93
2023-03-21T07:52:50.296Z,8.67
2023-03-21T07:56:17.340Z,7.10
2023-03-21T07:59:18.394Z,7.70
2023-03-21T08:02:43.550Z,8.43
2023-03-21T08:06:24.398Z,8.07
2023-03-21T08:09:42.434Z,7.35
2023-03-21T08:12:54.450Z,10.23
2023-03-21T08:15:55.432Z,7.97
2023-03-21T08:19:07.526Z,8.45
2023-03-21T08:22:15.642Z,9.00
2023-03-21T08:25:45.403Z,6.73
2023-03-21T08:29:03.462Z,7.80
2023-03-21T08:32:16.505Z,7.30
2023-03-21T08:35:28.585Z,8.80
2023-03-21T08:38:52.534Z,8.10
2023-03-21T08:42:06.558Z,7.87
2023-03-21T08:45:31.501Z,9.57
2023-03-21T08:48:43.602Z,6.03
2023-03-21T08:51:55.555Z,6.67
2023-03-21T08:54:55.640Z,8.17
2023-03-21T08:58:22.506Z,7.65
2023-03-21T09:01:34.599Z,7.45
2023-03-21T09:04:47.633Z,8.93
2023-03-21T09:07:59.603Z,6.90
2023-03-21T09:11:11.615Z,8.50
2023-03-21T09:14:28.738Z,7.45
2023-03-21T09:17:49.602Z,11.60
2023-03-21T09:20:49.614Z,6.15
2023-03-21T09:24:13.561Z,11.83
2023-03-21T09:27:13.652Z,8.70
2023-03-21T09:30:39.667Z,9.90
2023-03-21T09:33:39.690Z,6.65
2023-03-21T09:36:51.694Z,7.40
2023-03-21T09:40:03.754Z,8.03
2023-03-21T09:43:27.679Z,11.25
2023-03-21T09:46:42.952Z,9.70
2023-03-21T09:50:14.505Z,9.90
2023-03-21T09:53:19.717Z,10.20
2023-03-21T09:56:38.728Z,9.47
2023-03-21T09:59:50.791Z,7.47
2023-03-21T10:03:14.779Z,6.65
2023-03-21T10:06:41.816Z,7.03
2023-03-21T10:09:53.762Z,11.60
2023-03-21T10:13:17.812Z,8.13
2023-03-21T10:16:31.813Z,9.17
2023-03-21T10:19:57.785Z,10.57
2023-03-21T10:23:13.801Z,9.65
2023-03-21T10:26:39.793Z,10.73
2023-03-21T10:29:51.804Z,9.57
2023-03-21T10:33:17.873Z,9.25
2023-03-21T10:36:34.812Z,6.47
2023-03-21T10:39:58.873Z,6.70
2023-03-21T10:42:58.834Z,10.13
2023-03-21T10:46:10.944Z,8.63
2023-03-21T10:49:11.982Z,13.47
2023-03-21T10:52:37.894Z,8.15
2023-03-21T10:55:49.939Z,7.83
2023-03-21T10:59:13.928Z,8.50
2023-03-21T11:02:26.030Z,5.70
2023-03-21T11:05:50.005Z,8.90
2023-03-21T11:09:03.953Z,8.20
2023-03-21T11:12:36.952Z,8.50
2023-03-21T11:15:52.960Z,7.07
2023-03-21T11:19:16.946Z,7.65
2023-03-21T11:22:29.090Z,8.23
2023-03-21T11:25:57.062Z,7.47
2023-03-21T11:29:09.106Z,5.63
2023-03-21T11:32:41.058Z,7.25
2023-03-21T11:35:53.097Z,7.95
2023-03-21T11:39:18.110Z,6.83
2023-03-21T11:42:32.093Z,7.45
2023-03-21T11:45:57.080Z,7.80
2023-03-21T11:49:15.126Z,8.50
2023-03-21T11:52:41.151Z,8.27
2023-03-21T11:55:56.132Z,6.77
2023-03-21T11:59:25.165Z,10.23
2023-03-21T12:02:41.142Z,6.37
2023-03-21T12:06:06.090Z,7.00
2023-03-21T12:09:19.211Z,6.97
2023-03-21T12:12:52.153Z,6.05
2023-03-21T12:16:10.173Z,4.35
2023-03-21T12:19:40.221Z,5.83
2023-03-21T12:25:56.227Z,10.95
2023-03-21T12:29:10.247Z,5.70
2023-03-21T12:32:37.298Z,6.73
2023-03-21T12:35:54.278Z,8.13
2023-03-21T12:39:19.351Z,6.93
2023-03-21T12:42:54.244Z,4.87
2023-03-21T12:46:19.465Z,6.35
2023-03-21T12:49:40.313Z,10.33
2023-03-21T12:53:04.253Z,7.70
2023-03-21T12:56:16.319Z,6.57
2023-03-21T12:59:43.271Z,5.20
2023-03-21T13:02:55.355Z,6.13
2023-03-21T13:06:22.316Z,5.15
2023-03-21T13:09:38.014Z,3.93
2023-03-21T13:13:02.346Z,6.70
2023-03-21T13:16:16.395Z,4.53
2023-03-21T13:19:41.332Z,7.87
2023-03-21T13:22:59.511Z,7.77
2023-03-21T13:26:22.402Z,4.47
2023-03-21T13:29:37.402Z,6.07
2023-03-21T13:33:03.421Z,4.65
2023-03-21T13:36:19.376Z,7.13
2023-03-21T13:39:45.540Z,5.53
2023-03-21T13:42:57.370Z,7.47
2023-03-21T13:46:21.548Z,7.40
2023-03-21T13:49:39.493Z,5.07
2023-03-21T13:52:51.565Z,7.77
2023-03-21T13:56:12.508Z,5.57
2023-03-21T13:59:36.476Z,7.40
2023-03-21T14:02:49.479Z,8.07
2023-03-21T14:06:14.620Z,8.10
2023-03-21T14:09:26.541Z,7.80
2023-03-21T14:12:52.510Z,6.80
2023-03-21T14:16:06.619Z,5.30
2023-03-21T14:19:28.600Z,9.75
2023-03-21T14:22:28.653Z,6.55
2023-03-21T14:25:56.621Z,5.67
2023-03-21T14:29:25.095Z,5.43
2023-03-21T14:32:40.630Z,4.87
2023-03-21T14:35:53.593Z,3.40
2023-03-21T14:39:21.656Z,11.30
2023-03-21T14:42:33.621Z,4.53
2023-03-21T14:45:59.856Z,4.33
2023-03-21T14:48:59.625Z,4.20
2023-03-21T14:52:23.664Z,5.65
2023-03-21T14:55:36.795Z,8.87
2023-03-21T14:59:02.667Z,7.60
2023-03-21T15:02:05.687Z,5.67
2023-03-21T15:05:30.741Z,3.90
2023-03-21T15:08:42.733Z,4.75
2023-03-21T15:11:54.754Z,7.90
2023-03-21T15:14:54.752Z,4.37
2023-03-21T15:18:21.722Z,6.73
2023-03-21T15:21:33.754Z,7.87
2023-03-21T15:25:01.862Z,4.93
2023-03-21T15:28:13.800Z,7.10
2023-03-21T15:31:39.783Z,5.50
2023-03-21T15:34:52.783Z,7.15
2023-03-21T15:38:17.792Z,7.37
2023-03-21T15:41:39.877Z,4.43
2023-03-21T15:45:04.855Z,5.17
2023-03-21T15:48:17.858Z,4.50
2023-03-21T15:51:43.892Z,8.65
2023-03-21T15:54:58.837Z,4.30
2023-03-21T15:58:23.825Z,4.40
2023-03-21T16:01:35.963Z,5.43
2023-03-21T16:05:03.904Z,3.20
2023-03-21T16:08:18.874Z,8.43
2023-03-21T16:11:42.913Z,4.40
2023-03-21T16:14:42.854Z,8.73
2023-03-21T16:18:08.085Z,4.85
2023-03-21T16:21:06.891Z,5.17
2023-03-21T16:24:32.975Z,4.17
2023-03-21T16:27:45.059Z,5.90
2023-03-21T16:31:10.142Z,4.50
2023-03-21T16:34:21.952Z,7.25
2023-03-21T16:37:35.073Z,5.33
2023-03-21T16:40:48.922Z,5.20
2023-03-21T16:44:13.054Z,8.00
2023-03-21T16:47:12.964Z,4.20
2023-03-21T16:50:43.991Z,4.33
2023-03-21T16:53:44.032Z,9.87
2023-03-21T16:57:17.106Z,7.87
2023-03-21T17:00:33.046Z,6.13
2023-03-21T17:03:50.092Z,9.27
2023-03-21T17:07:02.074Z,5.93
2023-03-21T17:10:15.149Z,7.60
2023-03-21T17:13:29.102Z,4.55
2023-03-21T17:16:53.240Z,4.03
2023-03-21T17:20:05.073Z,3.93
2023-03-21T17:23:27.088Z,7.35
2023-03-21T17:26:39.126Z,4.50
2023-03-21T17:30:06.213Z,4.60
2023-03-21T17:33:18.208Z,8.25
2023-03-21T17:36:43.180Z,7.97
2023-03-21T17:42:47.194Z,5.43
2023-03-21T17:46:08.262Z,4.23
2023-03-21T17:49:35.231Z,4.85
2023-03-21T17:52:35.227Z,4.83
2023-03-21T17:55:54.210Z,5.47
2023-03-21T18:02:19.237Z,4.97
2023-03-21T18:05:43.254Z,5.87
2023-03-21T18:08:43.216Z,5.80
2023-03-21T18:11:55.261Z,6.53
2023-03-21T18:14:55.289Z,4.80
2023-03-21T18:18:22.413Z,4.53
2023-03-21T18:21:22.755Z,4.07
2023-03-21T18:24:35.278Z,5.33
2023-03-21T18:27:41.079Z,5.17
2023-03-21T18:31:05.413Z,4.00
2023-03-21T18:34:02.367Z,7.03
2023-03-21T18:37:27.387Z,6.30
2023-03-21T18:40:27.567Z,5.23
2023-03-21T18:44:01.552Z,3.80
2023-03-21T18:46:40.512Z,4.30
2023-03-21T18:50:14.239Z,5.35
2023-03-21T18:53:21.385Z,5.20
2023-03-21T18:57:31.881Z,5.40
2023-03-21T18:59:39.587Z,5.83
2023-03-21T19:03:03.989Z,6.30
2023-03-21T19:06:11.536Z,7.30
2023-03-21T19:15:43.499Z,5.83
2023-03-21T19:18:57.251Z,8.07
2023-03-21T19:22:10.522Z,4.67
2023-03-21T19:25:35.509Z,4.63
2023-03-21T19:28:35.529Z,4.95
2023-03-21T19:31:47.600Z,4.37
2023-03-21T19:34:47.555Z,4.40
2023-03-21T19:38:13.556Z,6.40
2023-03-21T19:41:25.515Z,4.70
2023-03-21T19:44:37.537Z,6.27
2023-03-21T19:47:37.620Z,7.85
2023-03-21T19:51:20.488Z,6.45
2023-03-21T19:54:15.627Z,5.85
2023-03-21T19:57:39.674Z,7.15
2023-03-21T20:00:39.982Z,6.97
2023-03-21T20:04:07.654Z,5.30
2023-03-21T20:10:23.669Z,5.90
2023-03-21T20:16:24.806Z,6.70
2023-03-21T20:19:40.615Z,5.43
2023-03-21T20:26:07.607Z,6.23
2023-03-21T20:29:51.839Z,5.70
2023-03-21T20:32:20.719Z,5.45
2023-03-21T20:36:28.575Z,6.40
2023-03-21T20:38:52.736Z,6.53
2023-03-21T20:42:07.779Z,7.65
2023-03-21T20:45:32.753Z,5.80
2023-03-21T20:48:43.784Z,5.40
2023-03-21T20:55:08.769Z,5.70
2023-03-21T20:58:59.450Z,5.90
2023-03-21T21:01:35.880Z,5.40
2023-03-21T21:05:17.599Z,5.83
2023-03-21T21:07:48.773Z,6.95
2023-03-21T21:11:53.492Z,6.17
2023-03-21T21:14:15.859Z,5.47
2023-03-21T21:18:04.044Z,4.80
2023-03-21T21:20:41.118Z,5.97
2023-03-21T21:24:07.341Z,6.17
2023-03-21T21:27:04.894Z,5.60
2023-03-21T21:30:30.897Z,6.65
2023-03-21T21:33:30.857Z,6.23
2023-03-21T21:36:42.949Z,6.77
2023-03-21T21:39:43.892Z,5.07
2023-03-21T21:43:07.897Z,5.53
2023-03-21T21:46:21.993Z,5.03
2023-03-21T21:49:35.000Z,5.03
2023-03-21T21:52:34.965Z,5.40
2023-03-21T21:56:06.009Z,5.90
2023-03-21T21:59:17.952Z,5.33
2023-03-21T22:02:44.059Z,6.80
2023-03-21T22:05:58.013Z,4.67
2023-03-21T22:09:00.075Z,5.15
2023-03-21T22:12:12.024Z,5.03
2023-03-21T22:15:12.079Z,5.00
2023-03-21T22:18:39.074Z,5.45
2023-03-21T22:21:39.025Z,5.03
2023-03-21T22:24:52.044Z,4.90
2023-03-21T22:27:52.130Z,5.93
2023-03-21T22:31:16.204Z,4.33
2023-03-21T22:34:30.103Z,5.17
2023-03-21T22:37:55.134Z,4.60
2023-03-21T22:40:55.105Z,4.67
2023-03-21T22:44:07.137Z,5.70
2023-03-21T22:50:37.647Z,5.03
2023-03-21T22:56:55.201Z,5.33
2023-03-21T23:00:07.248Z,5.10
2023-03-21T23:03:07.262Z,7.17
2023-03-21T23:06:34.221Z,4.47
2023-03-21T23:09:34.222Z,6.50
2023-03-21T23:12:53.162Z,6.93
2023-03-21T23:15:53.215Z,5.00
2023-03-21T23:19:09.265Z,6.75
2023-03-21T23:22:23.253Z,5.33
2023-03-21T23:25:35.293Z,7.90
2023-03-21T23:28:47.253Z,5.15
2023-03-21T23:32:00.325Z,7.87
2023-03-21T23:35:00.306Z,7.15
2023-03-21T23:38:27.333Z,5.30
2023-03-21T23:41:39.338Z,5.97
2023-03-21T23:44:51.348Z,6.73
2023-03-21T23:48:03.482Z,6.47
2023-03-21T23:51:17.337Z,7.53
2023-03-21T23:54:31.299Z,6.60
2023-03-21T23:57:55.409Z,7.00
